Blue Grass Airport Lexington US
ICAO: KLEX
IATA: LEX
Category: Large
Scheduled Services: Yes

Elevation: 979 ft
TransAlt. 18000 ft.

Airport Communications:
LEXINGTON APP/DEP:120.15
ATIS:126.3
CLNC DEL:132.35
GND:121.9
LEXINGTON TWR:119.1
UNICOM:122.95

KLEX Zoom In..

If you have problems with the map follow the link
https://www.worldairports.se/pages/airport.php?
ICAO=KLEX

Runways:

(A) RW 04 length 7004 ft width 150 ft
ILS 110.10 / hdg 46

(B) RW 09 length 4000 ft width 75 ft
---- / hdg 87

(C) RW 22 length 7004 ft width 150 ft
ILS 111.75 / hdg 226

(D) RW 27 length 4000 ft width 75 ft
---- / hdg 267

Location; KLEX
Day. 19 / Time. 00.54 Zulu
* Altimeter: 30.43
* Temperature: 08° c. 46.4°f.
* Wind from: 000° Speed 00 kn.
Dewpoint: 00° c.
Visibility: 10 Statute Miles.
Clouds: Clear (automated report).

KLEX 190054Z 00000KT 10SM CLR 08/00 A3043 RMK AO2 SLP306 T00780000


Wind - Calm.

 
 
jpsmedia.com for Web Design worldairports.se 2018   terms of use